Time;durP1;ratioP1;P1;durP2;ratioP2;P2;SDS_P1;SDS_P2;PMS_P1;PMS_P2;Temp;Humidity;BMP_temperature;BMP_pressure;BME280_temperature;BME280_humidity;BME280_pressure;Samples;Min_cycle;Max_cycle;Signal;HPM_P1;HPM_P2
2021/12/29 00:00:13;;;;;;;20.60;5.65;;;7.10;99.90;;;;;;5026499;28;20029;-74
2021/12/29 00:02:40;;;;;;;11.82;5.35;;;7.10;99.90;;;;;;5029074;28;20037;-73
2021/12/29 00:05:07;;;;;;;28.25;6.95;;;7.20;99.90;;;;;;5045946;28;20029;-74
2021/12/29 00:07:32;;;;;;;19.35;6.07;;;7.20;99.90;;;;;;5046046;28;20018;-73
2021/12/29 00:10:00;;;;;;;12.77;4.72;;;7.10;99.90;;;;;;5045757;28;20055;-73
2021/12/29 00:12:27;;;;;;;15.27;5.82;;;7.10;99.90;;;;;;5046169;28;20030;-73
2021/12/29 00:14:54;;;;;;;13.65;6.13;;;7.10;99.90;;;;;;5044554;28;20541;-73
2021/12/29 00:17:20;;;;;;;12.68;5.63;;;7.10;99.90;;;;;;5045753;28;20037;-73
2021/12/29 00:19:46;;;;;;;15.82;5.50;;;7.10;99.90;;;;;;5045592;28;20479;-73
2021/12/29 00:22:12;;;;;;;15.70;5.80;;;7.10;99.90;;;;;;5045668;28;20413;-74
2021/12/29 00:24:47;;;;;;;18.15;5.90;;;7.10;99.90;;;;;;5044303;28;20033;-74
2021/12/29 00:27:13;;;;;;;21.40;7.00;;;7.00;99.90;;;;;;5044470;28;20018;-74
2021/12/29 00:29:39;;;;;;;13.85;6.50;;;7.10;99.90;;;;;;5045624;28;20028;-74
2021/12/29 00:32:05;;;;;;;16.30;5.93;;;7.10;99.90;;;;;;5045741;28;20032;-72
2021/12/29 00:34:30;;;;;;;14.65;5.93;;;7.10;99.90;;;;;;5045244;28;20104;-73
2021/12/29 00:36:57;;;;;;;18.38;6.20;;;7.00;99.90;;;;;;5053567;28;20148;-73
2021/12/29 00:39:22;;;;;;;20.30;6.38;;;7.10;99.90;;;;;;5065090;28;20025;-73
2021/12/29 00:41:48;;;;;;;17.35;6.63;;;7.10;99.90;;;;;;5065449;28;20101;-73
2021/12/29 00:44:14;;;;;;;31.92;6.82;;;7.10;99.90;;;;;;5065323;28;20024;-74
2021/12/29 00:46:40;;;;;;;13.40;6.40;;;7.00;99.90;;;;;;5065188;28;20049;-73
2021/12/29 00:49:08;;;;;;;17.13;6.95;;;7.00;99.90;;;;;;5064796;28;20079;-73
2021/12/29 00:51:33;;;;;;;15.60;6.65;;;6.90;99.90;;;;;;5065141;28;20362;-74
2021/12/29 00:53:59;;;;;;;22.33;6.57;;;7.00;99.90;;;;;;5065087;28;20564;-73
2021/12/29 00:56:25;;;;;;;13.00;6.03;;;6.90;99.90;;;;;;5064916;28;20021;-72
2021/12/29 00:58:51;;;;;;;27.83;8.18;;;6.90;99.90;;;;;;5064774;28;20047;-72
2021/12/29 01:01:17;;;;;;;17.10;7.00;;;6.90;99.90;;;;;;5047083;28;20045;-72
2021/12/29 01:03:43;;;;;;;14.20;5.35;;;7.00;99.90;;;;;;5064997;28;20025;-74
2021/12/29 01:06:10;;;;;;;12.82;5.85;;;7.00;99.90;;;;;;5064622;28;20100;-72
2021/12/29 01:08:37;;;;;;;22.63;6.60;;;7.00;99.90;;;;;;5047081;28;20029;-73
2021/12/29 01:11:03;;;;;;;12.07;5.65;;;7.00;99.90;;;;;;5064834;28;20032;-72
2021/12/29 01:13:34;;;;;;;18.90;6.80;;;7.00;99.90;;;;;;5064750;28;20021;-73
2021/12/29 01:18:35;;;;;;;16.92;6.55;;;7.00;99.90;;;;;;5064368;28;20067;-73
2021/12/29 01:21:01;;;;;;;32.83;7.43;;;7.10;99.90;;;;;;5064476;28;20051;-73
2021/12/29 01:23:27;;;;;;;13.45;6.10;;;7.10;99.90;;;;;;5064878;28;20056;-72
2021/12/29 01:25:53;;;;;;;15.57;6.60;;;7.10;99.90;;;;;;5064367;28;20044;-73
2021/12/29 01:28:24;;;;;;;17.10;6.57;;;7.10;99.90;;;;;;5046740;28;20052;-74
2021/12/29 01:30:50;;;;;;;14.98;5.63;;;7.10;99.90;;;;;;5064618;28;20029;-74
2021/12/29 01:33:15;;;;;;;20.20;6.97;;;7.00;99.90;;;;;;5064337;28;20025;-74
2021/12/29 01:35:42;;;;;;;14.35;7.03;;;7.00;99.90;;;;;;5064517;28;20035;-74
2021/12/29 01:38:10;;;;;;;27.10;6.90;;;7.00;99.90;;;;;;5064685;28;20045;-74
2021/12/29 01:40:39;;;;;;;12.35;6.38;;;7.00;99.90;;;;;;5064546;28;20047;-73
2021/12/29 01:43:08;;;;;;;13.30;6.10;;;7.00;99.90;;;;;;5064788;28;20029;-73
2021/12/29 01:45:36;;;;;;;21.02;6.82;;;7.00;99.90;;;;;;5064838;28;20021;-74
2021/12/29 01:48:03;;;;;;;16.90;7.20;;;7.00;99.90;;;;;;5064138;28;20021;-73
2021/12/29 01:50:31;;;;;;;15.38;6.38;;;7.00;99.90;;;;;;5064359;28;20439;-73
2021/12/29 01:53:02;;;;;;;16.20;7.47;;;7.00;99.90;;;;;;5064198;28;20032;-73
2021/12/29 01:55:31;;;;;;;17.30;6.10;;;7.10;99.90;;;;;;5064514;28;20029;-73
2021/12/29 01:57:59;;;;;;;17.60;6.35;;;7.10;99.90;;;;;;5064418;28;20025;-74
2021/12/29 02:00:29;;;;;;;14.10;6.25;;;7.10;99.90;;;;;;5067730;28;20029;-73
2021/12/29 02:02:54;;;;;;;18.20;7.47;;;7.10;99.90;;;;;;5068437;28;20025;-73
2021/12/29 02:05:21;;;;;;;20.17;5.82;;;7.10;99.90;;;;;;5068327;28;20029;-73
2021/12/29 02:07:46;;;;;;;15.27;5.53;;;7.10;99.90;;;;;;5067840;28;20021;-72
2021/12/29 02:10:15;;;;;;;19.23;6.60;;;7.10;99.90;;;;;;5068217;28;20029;-73
2021/12/29 02:12:43;;;;;;;20.75;6.65;;;7.00;99.90;;;;;;5068258;28;20035;-73
2021/12/29 02:15:10;;;;;;;17.63;7.63;;;7.10;99.90;;;;;;5067910;28;20480;-72
2021/12/29 02:17:36;;;;;;;16.70;7.55;;;7.10;99.90;;;;;;5050315;28;20036;-72
2021/12/29 02:20:05;;;;;;;24.05;7.90;;;7.10;99.90;;;;;;5067677;28;20464;-72
2021/12/29 02:22:42;;;;;;;15.55;6.53;;;7.00;99.90;;;;;;5067011;28;20029;-72
2021/12/29 02:27:49;;;;;;;19.02;7.28;;;7.00;99.90;;;;;;5067755;28;20447;-72
2021/12/29 02:30:19;;;;;;;17.25;7.18;;;7.00;99.90;;;;;;5067681;28;20484;-72
2021/12/29 02:32:45;;;;;;;18.45;8.38;;;7.00;99.90;;;;;;5068035;28;20029;-73
2021/12/29 02:35:13;;;;;;;29.33;8.25;;;7.00;99.90;;;;;;5067691;28;20037;-72
2021/12/29 02:37:39;;;;;;;21.30;7.75;;;6.90;99.90;;;;;;5067189;28;20060;-73
2021/12/29 02:40:07;;;;;;;18.65;8.80;;;6.90;99.90;;;;;;5066999;28;20045;-72
2021/12/29 02:42:39;;;;;;;24.50;8.73;;;6.80;99.90;;;;;;5067332;28;20133;-72
2021/12/29 02:45:08;;;;;;;17.15;7.28;;;6.80;99.90;;;;;;5067946;28;20690;-72
2021/12/29 02:47:34;;;;;;;24.95;9.07;;;6.80;99.90;;;;;;5067589;28;20052;-72
2021/12/29 02:50:00;;;;;;;33.33;8.68;;;6.80;99.90;;;;;;5067092;28;20025;-72
2021/12/29 02:52:25;;;;;;;22.70;8.75;;;6.80;99.90;;;;;;5067378;28;20096;-71
2021/12/29 02:54:52;;;;;;;20.15;8.82;;;6.70;99.90;;;;;;5067195;28;20025;-72
2021/12/29 02:57:17;;;;;;;14.48;7.47;;;6.70;99.90;;;;;;5067359;28;20024;-72
2021/12/29 02:59:44;;;;;;;18.33;7.20;;;6.80;99.90;;;;;;5067500;28;20107;-72
2021/12/29 03:02:15;;;;;;;26.38;8.02;;;6.70;99.90;;;;;;5067365;28;20029;-73
2021/12/29 03:04:41;;;;;;;30.15;8.88;;;6.70;99.90;;;;;;5067211;28;20033;-73
2021/12/29 03:07:07;;;;;;;30.65;8.25;;;6.70;99.90;;;;;;5049309;28;20036;-73
2021/12/29 03:09:33;;;;;;;19.58;7.20;;;6.60;99.90;;;;;;5048916;28;20035;-72
2021/12/29 03:11:58;;;;;;;26.33;9.20;;;6.70;99.90;;;;;;5066266;28;20455;-73
2021/12/29 03:14:25;;;;;;;23.50;7.68;;;6.80;99.90;;;;;;5067205;28;20025;-72
2021/12/29 03:16:52;;;;;;;21.65;8.63;;;6.70;99.90;;;;;;5066746;28;20025;-71
2021/12/29 03:19:18;;;;;;;16.63;8.00;;;6.60;99.90;;;;;;5067142;28;20113;-71
2021/12/29 03:21:44;;;;;;;23.83;8.20;;;6.60;99.90;;;;;;5066532;28;20040;-71
2021/12/29 03:24:11;;;;;;;28.42;8.77;;;6.70;99.90;;;;;;5066849;28;20021;-73
2021/12/29 03:26:37;;;;;;;24.63;8.60;;;6.70;99.90;;;;;;5067152;28;20033;-73
2021/12/29 03:29:05;;;;;;;21.95;8.13;;;6.70;99.90;;;;;;5048908;28;20029;-72
2021/12/29 03:31:32;;;;;;;20.85;8.23;;;6.70;99.90;;;;;;5066631;28;20084;-73
2021/12/29 03:33:59;;;;;;;19.02;8.38;;;6.70;99.90;;;;;;5066817;28;20444;-73
2021/12/29 03:36:25;;;;;;;27.55;8.80;;;6.80;99.90;;;;;;5066058;28;20384;-73
2021/12/29 03:38:51;;;;;;;25.33;7.07;;;6.80;99.90;;;;;;5066561;28;20029;-72
2021/12/29 03:41:22;;;;;;;19.00;9.05;;;6.80;99.90;;;;;;5066406;28;20393;-73
2021/12/29 03:43:48;;;;;;;15.93;6.60;;;6.80;99.90;;;;;;5066358;28;20021;-73
2021/12/29 03:46:15;;;;;;;15.85;6.93;;;6.80;99.90;;;;;;5066487;28;20021;-72
2021/12/29 03:48:43;;;;;;;20.08;7.95;;;6.70;99.90;;;;;;5066681;28;20032;-72
2021/12/29 03:51:10;;;;;;;19.35;7.18;;;6.80;99.90;;;;;;5065901;28;20074;-73
2021/12/29 03:53:36;;;;;;;21.25;7.50;;;6.70;99.90;;;;;;5066433;28;20025;-72
2021/12/29 03:56:03;;;;;;;21.73;7.30;;;6.70;99.90;;;;;;5066428;28;20032;-73
2021/12/29 03:58:29;;;;;;;14.27;7.15;;;6.70;99.90;;;;;;5065984;28;20052;-72
2021/12/29 04:00:58;;;;;;;15.13;6.72;;;6.70;99.90;;;;;;5066255;28;20037;-72
2021/12/29 04:03:24;;;;;;;21.25;7.75;;;6.80;99.90;;;;;;5066160;28;20029;-72
2021/12/29 04:05:50;;;;;;;15.43;6.65;;;6.80;99.90;;;;;;5065607;28;20048;-72
2021/12/29 04:08:16;;;;;;;13.15;5.80;;;6.60;99.90;;;;;;5066039;28;20051;-73
2021/12/29 04:10:42;;;;;;;18.17;6.75;;;6.70;99.90;;;;;;5066012;28;20082;-73
2021/12/29 04:13:08;;;;;;;17.95;6.90;;;6.70;99.90;;;;;;5065858;28;20025;-73
2021/12/29 04:15:34;;;;;;;22.10;5.68;;;6.80;99.90;;;;;;5066232;28;20033;-72
2021/12/29 04:18:03;;;;;;;14.23;5.93;;;6.70;99.90;;;;;;5065976;28;20088;-72
2021/12/29 04:23:17;;;;;;;13.13;5.78;;;6.70;99.90;;;;;;5065778;28;20028;-72
2021/12/29 04:25:48;;;;;;;11.80;5.03;;;6.70;99.90;;;;;;5065511;28;20025;-73
2021/12/29 04:28:16;;;;;;;17.17;5.70;;;6.70;99.90;;;;;;5065840;28;20051;-72
2021/12/29 04:30:43;;;;;;;14.95;6.07;;;6.80;99.90;;;;;;5065772;28;20029;-72
2021/12/29 04:33:09;;;;;;;15.88;6.22;;;6.60;99.90;;;;;;5065198;28;20025;-74
2021/12/29 04:35:36;;;;;;;15.95;5.97;;;6.70;99.90;;;;;;5065528;28;20028;-72
2021/12/29 04:38:01;;;;;;;10.90;4.00;;;6.70;99.90;;;;;;5065342;28;20041;-73
2021/12/29 04:40:27;;;;;;;10.07;4.78;;;6.70;99.90;;;;;;5065184;28;20044;-72
2021/12/29 04:42:52;;;;;;;15.27;5.32;;;6.70;99.90;;;;;;5065404;28;20029;-73
2021/12/29 04:45:18;;;;;;;11.52;4.70;;;6.60;99.90;;;;;;5065593;28;20029;-73
2021/12/29 04:47:47;;;;;;;11.00;4.55;;;6.60;99.90;;;;;;5046893;28;20029;-73
2021/12/29 04:50:28;;;;;;;14.43;6.07;;;6.60;99.90;;;;;;5065429;28;20017;-74
2021/12/29 04:52:57;;;;;;;14.63;5.95;;;6.60;99.90;;;;;;5065188;28;20358;-73
2021/12/29 04:55:24;;;;;;;11.80;4.57;;;6.60;99.90;;;;;;5064846;28;20032;-73
2021/12/29 04:57:50;;;;;;;11.75;5.00;;;6.70;99.90;;;;;;5065192;28;20025;-73
2021/12/29 05:00:20;;;;;;;14.65;6.50;;;6.60;99.90;;;;;;5064765;28;20052;-73
2021/12/29 05:02:47;;;;;;;12.00;6.22;;;6.60;99.90;;;;;;5065212;28;20052;-73
2021/12/29 05:05:38;;;;;;;12.93;4.57;;;6.60;99.90;;;;;;5065163;28;20032;-72
2021/12/29 05:10:51;;;;;;;12.63;4.57;;;6.60;99.90;;;;;;5064923;28;20088;-73
2021/12/29 05:13:17;;;;;;;12.85;5.80;;;6.60;99.90;;;;;;5046967;28;20044;-73
2021/12/29 05:15:44;;;;;;;10.50;5.15;;;6.50;99.90;;;;;;5046526;28;20078;-72
2021/12/29 05:18:11;;;;;;;14.73;5.47;;;6.60;99.90;;;;;;5064912;28;20056;-73
2021/12/29 05:20:38;;;;;;;13.20;4.75;;;6.60;99.90;;;;;;5064848;28;20069;-72
2021/12/29 05:23:04;;;;;;;14.23;5.35;;;6.60;99.90;;;;;;5064562;28;20029;-72
2021/12/29 05:25:30;;;;;;;18.67;6.60;;;6.60;99.90;;;;;;5046923;28;20021;-72
2021/12/29 05:27:56;;;;;;;15.30;6.07;;;6.60;99.90;;;;;;5064836;28;20025;-72
2021/12/29 05:30:22;;;;;;;15.82;6.68;;;6.60;99.90;;;;;;5064444;28;20021;-72
2021/12/29 05:32:47;;;;;;;23.45;7.13;;;6.60;99.90;;;;;;5064933;28;20033;-72
2021/12/29 05:35:15;;;;;;;18.60;6.38;;;6.70;99.90;;;;;;5063921;28;20025;-72
2021/12/29 05:37:41;;;;;;;19.85;5.80;;;6.60;99.90;;;;;;5064446;28;20064;-72
2021/12/29 05:40:09;;;;;;;15.15;6.35;;;6.60;99.90;;;;;;5064871;28;20486;-72
2021/12/29 05:42:35;;;;;;;12.38;5.78;;;6.60;99.90;;;;;;5064483;28;20021;-72
2021/12/29 05:45:06;;;;;;;14.57;5.65;;;6.60;99.90;;;;;;5064630;28;20021;-72
2021/12/29 05:47:33;;;;;;;13.13;6.30;;;6.60;99.90;;;;;;5045532;28;20464;-72
2021/12/29 05:49:59;;;;;;;10.98;5.28;;;6.60;99.90;;;;;;5064276;28;20029;-72
2021/12/29 05:52:25;;;;;;;16.30;6.13;;;6.60;99.90;;;;;;5064367;28;20059;-72
2021/12/29 05:54:51;;;;;;;14.27;5.97;;;6.70;99.90;;;;;;5064652;28;20037;-72
2021/12/29 05:57:17;;;;;;;29.60;7.32;;;6.60;99.90;;;;;;5064096;28;20029;-72
2021/12/29 05:59:43;;;;;;;16.50;6.40;;;6.70;99.90;;;;;;5064598;28;20031;-73
2021/12/29 06:02:09;;;;;;;18.80;6.80;;;6.60;99.90;;;;;;5064531;28;20021;-73
2021/12/29 06:04:34;;;;;;;15.10;6.05;;;6.70;99.90;;;;;;5064252;28;20036;-71
2021/12/29 06:07:00;;;;;;;13.15;5.22;;;6.70;99.90;;;;;;5046305;28;20064;-72
2021/12/29 06:09:25;;;;;;;30.35;6.72;;;6.60;99.90;;;;;;5064397;28;20025;-72
2021/12/29 06:11:51;;;;;;;14.75;5.93;;;6.70;99.90;;;;;;5063948;28;20116;-71
2021/12/29 06:14:16;;;;;;;18.15;7.25;;;6.50;99.90;;;;;;5064298;28;20112;-72
2021/12/29 06:16:42;;;;;;;14.32;5.97;;;6.60;99.90;;;;;;5063952;28;20095;-72
2021/12/29 06:19:08;;;;;;;17.42;6.82;;;6.50;99.90;;;;;;5064212;28;20025;-72
2021/12/29 06:21:33;;;;;;;17.38;6.47;;;6.50;99.90;;;;;;5064259;28;20056;-72
2021/12/29 06:23:59;;;;;;;16.02;7.07;;;6.60;99.90;;;;;;5063859;28;20033;-72
2021/12/29 06:26:25;;;;;;;11.43;5.70;;;6.60;99.90;;;;;;5064168;28;20031;-71
2021/12/29 06:28:50;;;;;;;16.80;5.82;;;6.60;99.90;;;;;;5064449;28;20109;-71
2021/12/29 06:31:16;;;;;;;20.45;6.95;;;6.60;99.90;;;;;;5063632;28;20092;-72
2021/12/29 06:33:42;;;;;;;19.85;6.95;;;6.60;99.90;;;;;;5063357;28;20025;-73
2021/12/29 06:36:08;;;;;;;19.40;7.82;;;6.60;99.90;;;;;;5061937;28;20047;-72
2021/12/29 06:38:35;;;;;;;15.70;6.90;;;6.60;99.90;;;;;;5063915;28;20029;-72
2021/12/29 06:41:02;;;;;;;18.83;7.28;;;6.60;99.90;;;;;;5045985;28;20041;-72
2021/12/29 06:43:27;;;;;;;15.60;5.97;;;6.60;99.90;;;;;;5064081;28;20728;-72
2021/12/29 06:45:53;;;;;;;14.43;5.90;;;6.60;99.90;;;;;;5064438;28;20025;-72
2021/12/29 06:48:19;;;;;;;23.92;7.15;;;6.70;99.90;;;;;;5048944;28;20079;-72
2021/12/29 06:50:45;;;;;;;19.15;6.65;;;6.60;99.90;;;;;;5067467;28;20029;-72
2021/12/29 06:53:11;;;;;;;13.20;6.63;;;6.70;99.90;;;;;;5067229;28;20047;-72
2021/12/29 06:55:39;;;;;;;17.70;7.25;;;6.60;99.90;;;;;;5049622;28;20496;-72
2021/12/29 06:58:05;;;;;;;12.63;5.68;;;6.60;99.90;;;;;;5067808;28;20153;-72
2021/12/29 07:00:31;;;;;;;16.40;6.05;;;6.50;99.90;;;;;;5066975;28;20047;-72
2021/12/29 07:02:57;;;;;;;14.95;5.85;;;6.60;99.90;;;;;;5067581;28;20025;-72
2021/12/29 07:05:23;;;;;;;16.83;6.65;;;6.50;99.90;;;;;;5067283;28;20021;-72
2021/12/29 07:07:50;;;;;;;17.80;5.65;;;6.50;99.90;;;;;;5064202;28;20040;-73
2021/12/29 07:10:20;;;;;;;15.63;5.90;;;6.50;99.90;;;;;;5065630;28;20036;-74
2021/12/29 07:12:47;;;;;;;14.40;5.60;;;6.60;99.90;;;;;;5046750;28;20036;-74
2021/12/29 07:15:13;;;;;;;13.65;5.32;;;6.50;99.90;;;;;;5065031;28;20025;-76
2021/12/29 07:17:39;;;;;;;11.40;5.55;;;6.40;99.90;;;;;;5064986;28;20487;-75
2021/12/29 07:20:05;;;;;;;13.18;5.00;;;6.40;99.90;;;;;;5064220;28;20100;-76
2021/12/29 07:22:31;;;;;;;12.57;4.38;;;6.40;99.90;;;;;;5047010;28;20029;-76
2021/12/29 07:24:56;;;;;;;12.98;4.57;;;6.50;99.90;;;;;;5053687;28;20060;-77
2021/12/29 07:27:22;;;;;;;11.10;4.95;;;6.40;99.90;;;;;;5066288;28;20039;-74
2021/12/29 07:29:48;;;;;;;13.20;5.18;;;6.40;99.90;;;;;;5048648;28;20021;-75
2021/12/29 07:32:14;;;;;;;10.93;4.57;;;6.40;99.90;;;;;;5066748;28;20040;-74
2021/12/29 07:34:39;;;;;;;10.68;4.47;;;6.30;99.90;;;;;;5066123;28;20107;-76
2021/12/29 07:37:05;;;;;;;14.02;4.85;;;6.30;99.90;;;;;;5065950;28;20049;-74
2021/12/29 07:39:31;;;;;;;9.45;4.50;;;6.20;99.90;;;;;;5066451;28;20025;-76
2021/12/29 07:41:56;;;;;;;9.48;3.83;;;6.30;99.90;;;;;;5045014;28;20073;-76
2021/12/29 07:44:25;;;;;;;11.80;4.10;;;6.30;99.90;;;;;;5053498;28;20075;-75
2021/12/29 07:46:54;;;;;;;10.55;4.35;;;6.30;99.90;;;;;;5062715;28;20519;-74
2021/12/29 07:49:21;;;;;;;12.52;4.82;;;6.30;99.90;;;;;;5046922;28;20038;-74
2021/12/29 07:51:46;;;;;;;8.73;3.78;;;6.40;99.90;;;;;;5066167;28;20032;-76
2021/12/29 07:54:15;;;;;;;7.65;4.32;;;6.40;99.90;;;;;;5066127;28;20080;-74
2021/12/29 07:56:42;;;;;;;10.35;4.10;;;6.40;99.90;;;;;;5046867;28;20045;-78
2021/12/29 07:59:07;;;;;;;11.88;4.22;;;6.30;99.90;;;;;;5065272;28;20043;-75
2021/12/29 08:01:33;;;;;;;14.88;4.43;;;6.30;99.90;;;;;;5065087;28;20045;-77
2021/12/29 08:03:59;;;;;;;9.32;3.42;;;6.30;99.90;;;;;;5047832;28;20500;-76
2021/12/29 08:06:25;;;;;;;6.70;3.15;;;6.30;99.90;;;;;;5047817;28;20040;-76
2021/12/29 08:08:51;;;;;;;8.00;3.97;;;6.40;99.90;;;;;;5064534;28;20029;-76
2021/12/29 08:11:19;;;;;;;10.55;3.80;;;6.40;99.90;;;;;;5047668;28;20029;-76
2021/12/29 08:13:46;;;;;;;9.85;3.67;;;6.40;99.90;;;;;;5065681;28;20024;-78
2021/12/29 08:16:12;;;;;;;8.48;3.47;;;6.30;99.90;;;;;;5065027;28;20154;-77
2021/12/29 08:18:39;;;;;;;7.05;4.00;;;6.30;99.90;;;;;;5062288;28;20040;-76
2021/12/29 08:21:04;;;;;;;9.88;4.03;;;6.30;99.90;;;;;;5046451;28;20124;-75
2021/12/29 08:23:34;;;;;;;9.50;3.88;;;6.30;99.90;;;;;;5046732;28;20055;-76
2021/12/29 08:26:00;;;;;;;9.95;4.45;;;6.30;99.90;;;;;;5061178;28;20028;-76
2021/12/29 08:28:32;;;;;;;26.75;9.88;;;6.30;99.90;;;;;;5045841;28;20047;-76
2021/12/29 08:30:58;;;;;;;21.90;10.25;;;6.30;99.90;;;;;;5061550;28;20029;-76
2021/12/29 08:33:24;;;;;;;13.48;5.63;;;6.40;99.90;;;;;;5045980;28;20037;-76
2021/12/29 08:35:50;;;;;;;11.10;5.10;;;6.30;99.90;;;;;;5065369;28;20032;-76
2021/12/29 08:38:16;;;;;;;13.82;4.68;;;6.30;99.90;;;;;;5046959;28;20413;-75
2021/12/29 08:40:42;;;;;;;12.95;4.50;;;6.30;99.90;;;;;;5065635;28;20044;-76
2021/12/29 08:43:08;;;;;;;10.98;4.15;;;6.30;99.90;;;;;;5065334;28;20028;-76
2021/12/29 08:45:34;;;;;;;13.65;4.18;;;6.30;99.90;;;;;;5062535;28;20021;-75
2021/12/29 08:48:00;;;;;;;8.75;4.20;;;6.40;99.90;;;;;;5065387;28;20020;-73
2021/12/29 08:50:31;;;;;;;18.38;6.22;;;6.50;99.90;;;;;;5065199;28;20163;-75
2021/12/29 08:52:59;;;;;;;17.95;4.50;;;6.40;99.90;;;;;;5046765;28;20033;-76
2021/12/29 08:55:32;;;;;;;13.98;4.22;;;6.40;99.90;;;;;;5065175;28;20029;-75
2021/12/29 08:57:58;;;;;;;23.67;3.72;;;6.40;99.90;;;;;;5064170;28;20089;-75
2021/12/29 09:00:23;;;;;;;25.15;6.40;;;6.40;99.90;;;;;;5064862;28;20039;-75
2021/12/29 09:02:49;;;;;;;12.57;5.00;;;6.40;99.90;;;;;;5046738;28;20459;-76
2021/12/29 09:05:17;;;;;;;9.40;3.45;;;6.40;99.90;;;;;;5043075;28;20025;-77
2021/12/29 09:07:44;;;;;;;15.98;4.22;;;6.40;99.90;;;;;;5061595;28;20021;-75
2021/12/29 09:10:11;;;;;;;10.88;4.32;;;6.40;99.90;;;;;;5063747;28;20040;-75
2021/12/29 09:12:37;;;;;;;13.50;4.55;;;6.40;99.90;;;;;;5045674;28;20033;-75
2021/12/29 09:15:05;;;;;;;11.05;3.95;;;6.40;99.90;;;;;;5045550;28;20193;-75
2021/12/29 09:17:37;;;;;;;14.77;5.25;;;6.40;99.90;;;;;;5062348;28;20032;-76
2021/12/29 09:20:04;;;;;;;9.20;3.85;;;6.40;99.90;;;;;;5064490;28;20060;-74
2021/12/29 09:22:30;;;;;;;8.95;4.25;;;6.40;99.90;;;;;;5063114;28;20040;-75
2021/12/29 09:24:55;;;;;;;36.55;5.03;;;6.50;99.90;;;;;;5040386;28;20029;-75
2021/12/29 09:27:21;;;;;;;13.77;4.20;;;6.60;99.90;;;;;;5059602;28;20029;-75
2021/12/29 09:29:47;;;;;;;8.68;4.25;;;6.50;99.90;;;;;;5042312;28;20021;-77
2021/12/29 09:32:12;;;;;;;9.63;4.05;;;6.50;99.90;;;;;;5041480;28;20025;-77
2021/12/29 09:34:39;;;;;;;14.15;4.55;;;6.60;99.90;;;;;;5045929;28;20032;-77
2021/12/29 09:37:05;;;;;;;13.48;3.17;;;6.60;99.90;;;;;;5046182;28;20072;-76
2021/12/29 09:39:31;;;;;;;9.60;3.55;;;6.60;99.90;;;;;;5063724;28;20036;-76
2021/12/29 09:41:57;;;;;;;11.27;3.70;;;6.60;99.90;;;;;;5044172;28;20048;-76
2021/12/29 09:44:23;;;;;;;9.90;3.90;;;6.70;99.90;;;;;;5062732;28;20013;-75
2021/12/29 09:46:49;;;;;;;8.32;3.88;;;6.70;99.90;;;;;;5062457;28;20025;-75
2021/12/29 09:49:16;;;;;;;9.98;3.65;;;6.80;99.90;;;;;;5063649;28;20033;-76
2021/12/29 09:51:42;;;;;;;11.20;4.35;;;6.80;99.90;;;;;;5046511;28;20025;-76
2021/12/29 09:54:08;;;;;;;9.40;2.90;;;6.90;99.90;;;;;;5064189;28;20036;-77
2021/12/29 09:56:33;;;;;;;10.05;2.83;;;6.90;99.90;;;;;;5064559;28;20397;-75
2021/12/29 09:58:59;;;;;;;8.93;3.75;;;6.90;99.90;;;;;;5064245;28;20033;-76
2021/12/29 10:01:25;;;;;;;13.10;4.50;;;6.90;99.90;;;;;;5063596;28;20037;-75
2021/12/29 10:03:51;;;;;;;10.55;3.65;;;6.90;99.90;;;;;;5064705;28;20039;-77
2021/12/29 10:06:17;;;;;;;11.00;3.53;;;7.00;99.90;;;;;;5064259;28;20084;-76
2021/12/29 10:08:49;;;;;;;9.52;3.90;;;7.00;99.90;;;;;;5063688;28;20033;-77
2021/12/29 10:11:18;;;;;;;10.70;4.40;;;7.00;99.90;;;;;;5063631;28;20028;-76
2021/12/29 10:13:47;;;;;;;7.15;2.63;;;6.90;99.90;;;;;;5064039;28;20031;-75
2021/12/29 10:16:28;;;;;;;12.32;5.00;;;7.00;99.90;;;;;;5064337;28;20036;-74
2021/12/29 10:19:14;;;;;;;11.13;4.05;;;7.10;99.90;;;;;;5064416;28;20088;-75
2021/12/29 10:21:43;;;;;;;14.70;3.97;;;7.10;99.90;;;;;;5067741;28;20056;-76
2021/12/29 10:24:10;;;;;;;10.90;3.53;;;7.10;99.90;;;;;;5068042;28;20032;-75
2021/12/29 10:26:48;;;;;;;10.75;3.63;;;7.10;99.90;;;;;;5067905;28;20033;-74
2021/12/29 10:29:19;;;;;;;10.57;3.55;;;7.10;99.90;;;;;;5047660;28;20033;-74
2021/12/29 10:31:49;;;;;;;10.25;4.28;;;7.10;99.90;;;;;;5065473;28;20380;-76
2021/12/29 10:34:22;;;;;;;12.48;4.75;;;7.10;99.90;;;;;;5066951;28;20033;-75
2021/12/29 10:36:51;;;;;;;16.40;3.90;;;7.10;99.90;;;;;;5066920;28;20049;-74
2021/12/29 10:39:23;;;;;;;9.48;3.88;;;7.10;99.90;;;;;;5067029;28;20060;-76
2021/12/29 10:42:19;;;;;;;9.82;3.70;;;7.00;99.90;;;;;;5067166;28;20374;-76
2021/12/29 10:44:53;;;;;;;15.30;4.70;;;7.00;99.90;;;;;;5047624;28;20037;-78
2021/12/29 10:47:25;;;;;;;12.77;4.43;;;7.00;99.90;;;;;;5048720;28;20036;-73
2021/12/29 10:49:58;;;;;;;14.13;3.72;;;7.00;99.90;;;;;;5065596;28;20029;-76
2021/12/29 10:52:45;;;;;;;6.85;3.13;;;7.00;99.90;;;;;;5067208;28;20029;-75
2021/12/29 10:55:14;;;;;;;11.95;3.72;;;7.00;99.90;;;;;;5048372;28;20029;-75
2021/12/29 10:57:41;;;;;;;9.23;4.15;;;7.00;99.90;;;;;;5066980;28;20025;-76
2021/12/29 11:00:12;;;;;;;16.08;3.20;;;7.00;99.90;;;;;;5067431;28;20057;-75
2021/12/29 11:02:39;;;;;;;12.70;3.58;;;7.00;99.90;;;;;;5049095;28;20117;-76
2021/12/29 11:05:08;;;;;;;10.60;3.92;;;7.10;99.90;;;;;;5067148;28;20037;-74
2021/12/29 11:07:36;;;;;;;11.68;4.25;;;7.10;99.90;;;;;;5067003;28;20457;-73
2021/12/29 11:10:17;;;;;;;9.80;4.47;;;7.00;99.90;;;;;;5066681;28;20032;-74
2021/12/29 11:13:02;;;;;;;11.60;4.80;;;7.10;99.90;;;;;;5048965;28;20033;-74
2021/12/29 11:15:31;;;;;;;13.35;4.20;;;7.10;99.90;;;;;;5067113;28;20048;-74
2021/12/29 11:18:06;;;;;;;22.65;4.60;;;7.10;99.90;;;;;;5066403;28;20064;-74
2021/12/29 11:20:33;;;;;;;13.68;5.32;;;7.10;99.90;;;;;;5066871;28;20060;-75
2021/12/29 11:23:19;;;;;;;12.07;3.88;;;7.10;99.90;;;;;;5066586;28;20052;-75
2021/12/29 11:25:48;;;;;;;11.18;4.18;;;7.10;99.90;;;;;;5048498;28;20032;-77
2021/12/29 11:28:29;;;;;;;27.98;4.57;;;7.10;99.90;;;;;;5066763;28;20132;-74
2021/12/29 11:30:57;;;;;;;13.77;5.18;;;7.10;99.90;;;;;;5048247;28;20059;-76
2021/12/29 11:33:23;;;;;;;9.77;3.80;;;7.20;99.90;;;;;;5065978;28;20029;-74
2021/12/29 11:35:53;;;;;;;13.52;4.43;;;7.20;99.90;;;;;;5066655;28;20036;-74
2021/12/29 11:38:21;;;;;;;13.75;5.18;;;7.10;99.90;;;;;;5065712;28;20473;-77
2021/12/29 11:40:49;;;;;;;15.52;5.15;;;7.20;99.90;;;;;;5066343;28;20036;-76
2021/12/29 11:43:17;;;;;;;16.90;5.80;;;7.30;99.90;;;;;;5066566;28;20073;-75
2021/12/29 11:45:48;;;;;;;16.05;5.20;;;7.20;99.90;;;;;;5066079;28;20036;-75
2021/12/29 11:48:17;;;;;;;14.98;5.90;;;7.20;99.90;;;;;;5066580;28;20084;-75
2021/12/29 11:50:49;;;;;;;17.17;5.22;;;7.20;99.90;;;;;;5065689;28;20021;-74
2021/12/29 11:53:34;;;;;;;15.63;5.53;;;7.20;99.90;;;;;;5065880;28;20029;-76
2021/12/29 11:56:01;;;;;;;;;;;7.30;99.90;;;;;;5066672;28;20072;-74
2021/12/29 11:58:28;;;;;;;19.30;5.55;;;7.30;99.90;;;;;;5065895;28;19916;-74
2021/12/29 12:01:04;;;;;;;14.15;5.32;;;7.20;99.90;;;;;;5065929;28;20054;-75
2021/12/29 12:03:48;;;;;;;11.98;5.50;;;7.30;99.90;;;;;;5066200;28;20078;-75
2021/12/29 12:06:40;;;;;;;14.25;5.22;;;7.30;99.90;;;;;;5046696;28;20032;-75
2021/12/29 12:09:13;;;;;;;18.60;5.75;;;7.30;99.90;;;;;;5065924;28;20169;-75
2021/12/29 12:11:48;;;;;;;19.63;6.43;;;7.30;99.90;;;;;;5047982;28;20068;-75
2021/12/29 12:14:31;;;;;;;20.25;5.65;;;7.30;99.90;;;;;;5065408;28;20080;-76
2021/12/29 12:17:12;;;;;;;14.30;6.60;;;7.30;99.90;;;;;;5065882;28;20098;-75
2021/12/29 12:19:39;;;;;;;21.00;7.05;;;7.30;99.90;;;;;;5047722;28;20025;-75
2021/12/29 12:22:15;;;;;;;20.65;7.38;;;7.30;99.90;;;;;;5065383;28;20033;-74
2021/12/29 12:24:52;;;;;;;17.50;5.85;;;7.40;99.90;;;;;;5047828;28;20029;-73
2021/12/29 12:27:34;;;;;;;18.10;6.65;;;7.40;99.90;;;;;;5065212;28;20033;-73
2021/12/29 12:30:07;;;;;;;18.02;6.25;;;7.40;99.90;;;;;;5065655;28;20108;-75
2021/12/29 12:32:45;;;;;;;22.75;7.88;;;7.40;99.90;;;;;;5065076;28;20051;-74
2021/12/29 12:35:14;;;;;;;14.15;6.05;;;7.40;99.90;;;;;;5065209;28;20041;-77
2021/12/29 12:37:46;;;;;;;21.20;7.80;;;7.40;99.90;;;;;;5065198;28;20060;-76
2021/12/29 12:40:36;;;;;;;24.50;7.35;;;7.40;99.90;;;;;;5047258;28;20025;-74
2021/12/29 12:43:13;;;;;;;26.83;9.90;;;7.50;99.90;;;;;;5045338;28;20032;-74
2021/12/29 12:45:41;;;;;;;29.50;9.00;;;7.40;99.90;;;;;;5045361;28;20092;-75
2021/12/29 12:48:22;;;;;;;20.23;7.22;;;7.60;99.90;;;;;;5044961;28;20025;-74
2021/12/29 12:50:48;;;;;;;24.45;7.32;;;7.60;99.90;;;;;;5045153;28;20025;-75
2021/12/29 12:53:25;;;;;;;19.48;6.80;;;7.60;99.90;;;;;;5027045;28;20405;-76
2021/12/29 12:55:54;;;;;;;23.83;8.55;;;7.60;99.90;;;;;;5045020;28;20033;-74
2021/12/29 12:58:25;;;;;;;26.45;8.38;;;7.60;99.90;;;;;;5027199;28;20025;-74
2021/12/29 13:00:59;;;;;;;29.95;9.15;;;7.60;99.90;;;;;;5053483;28;20039;-74
2021/12/29 13:03:25;;;;;;;38.58;10.23;;;7.60;99.90;;;;;;5064545;28;20065;-74